sensor_id;sensor_type;location;lat;lon;timestamp;temperature;humidity
26186;DHT22;20067;48.764;9.176;2023-07-13T00:01:51;22.40;72.00
26186;DHT22;20067;48.764;9.176;2023-07-13T00:04:21;22.30;71.70
26186;DHT22;20067;48.764;9.176;2023-07-13T00:06:48;22.20;72.10
26186;DHT22;20067;48.764;9.176;2023-07-13T00:09:15;22.00;72.40
26186;DHT22;20067;48.764;9.176;2023-07-13T00:11:42;22.00;72.70
26186;DHT22;20067;48.764;9.176;2023-07-13T00:14:09;22.10;73.00
26186;DHT22;20067;48.764;9.176;2023-07-13T00:16:37;22.30;71.60
26186;DHT22;20067;48.764;9.176;2023-07-13T00:19:04;22.40;71.30
26186;DHT22;20067;48.764;9.176;2023-07-13T00:21:29;22.20;71.30
26186;DHT22;20067;48.764;9.176;2023-07-13T00:23:55;22.30;71.80
26186;DHT22;20067;48.764;9.176;2023-07-13T00:26:21;22.30;71.40
26186;DHT22;20067;48.764;9.176;2023-07-13T00:28:46;22.10;71.00
26186;DHT22;20067;48.764;9.176;2023-07-13T00:31:13;22.20;70.90
26186;DHT22;20067;48.764;9.176;2023-07-13T00:33:40;22.20;71.80
26186;DHT22;20067;48.764;9.176;2023-07-13T00:36:06;22.10;71.30
26186;DHT22;20067;48.764;9.176;2023-07-13T00:38:32;22.10;70.80
26186;DHT22;20067;48.764;9.176;2023-07-13T00:40:58;22.30;71.00
26186;DHT22;20067;48.764;9.176;2023-07-13T00:43:27;22.40;70.00
26186;DHT22;20067;48.764;9.176;2023-07-13T00:48:25;22.40;69.60
26186;DHT22;20067;48.764;9.176;2023-07-13T00:50:53;22.30;69.00
26186;DHT22;20067;48.764;9.176;2023-07-13T00:53:20;22.30;69.50
26186;DHT22;20067;48.764;9.176;2023-07-13T00:55:48;22.30;69.60
26186;DHT22;20067;48.764;9.176;2023-07-13T00:58:15;22.30;69.50
26186;DHT22;20067;48.764;9.176;2023-07-13T01:00:41;22.20;69.60
26186;DHT22;20067;48.764;9.176;2023-07-13T01:03:07;22.10;69.80
26186;DHT22;20067;48.764;9.176;2023-07-13T01:05:34;22.20;69.60
26186;DHT22;20067;48.764;9.176;2023-07-13T01:08:02;22.00;69.40
26186;DHT22;20067;48.764;9.176;2023-07-13T01:10:29;21.80;70.90
26186;DHT22;20067;48.764;9.176;2023-07-13T01:12:54;22.00;69.90
26186;DHT22;20067;48.764;9.176;2023-07-13T01:15:56;21.90;69.80
26186;DHT22;20067;48.764;9.176;2023-07-13T01:18:26;21.70;69.90
26186;DHT22;20067;48.764;9.176;2023-07-13T01:21:00;21.80;70.40
26186;DHT22;20067;48.764;9.176;2023-07-13T01:23:27;21.90;70.20
26186;DHT22;20067;48.764;9.176;2023-07-13T01:25:53;21.90;70.20
26186;DHT22;20067;48.764;9.176;2023-07-13T01:28:20;21.90;69.90
26186;DHT22;20067;48.764;9.176;2023-07-13T01:30:47;21.80;70.70
26186;DHT22;20067;48.764;9.176;2023-07-13T01:33:14;21.80;71.00
26186;DHT22;20067;48.764;9.176;2023-07-13T01:35:40;21.60;71.30
26186;DHT22;20067;48.764;9.176;2023-07-13T01:38:07;21.40;72.60
26186;DHT22;20067;48.764;9.176;2023-07-13T01:40:34;21.80;72.20
26186;DHT22;20067;48.764;9.176;2023-07-13T01:42:59;21.90;71.20
26186;DHT22;20067;48.764;9.176;2023-07-13T01:45:25;21.80;71.00
26186;DHT22;20067;48.764;9.176;2023-07-13T01:47:51;21.10;72.80
26186;DHT22;20067;48.764;9.176;2023-07-13T01:50:16;21.00;74.90
26186;DHT22;20067;48.764;9.176;2023-07-13T01:52:42;20.70;75.90
26186;DHT22;20067;48.764;9.176;2023-07-13T01:55:08;20.80;76.00
26186;DHT22;20067;48.764;9.176;2023-07-13T01:57:34;20.70;76.50
26186;DHT22;20067;48.764;9.176;2023-07-13T02:00:03;20.90;76.50
26186;DHT22;20067;48.764;9.176;2023-07-13T02:02:30;21.00;75.80
26186;DHT22;20067;48.764;9.176;2023-07-13T02:04:55;21.20;75.70
26186;DHT22;20067;48.764;9.176;2023-07-13T02:07:21;21.30;74.10
26186;DHT22;20067;48.764;9.176;2023-07-13T02:09:47;21.30;73.50
26186;DHT22;20067;48.764;9.176;2023-07-13T02:12:13;21.00;74.80
26186;DHT22;20067;48.764;9.176;2023-07-13T02:14:38;20.90;75.00
26186;DHT22;20067;48.764;9.176;2023-07-13T02:17:05;20.70;75.00
26186;DHT22;20067;48.764;9.176;2023-07-13T02:19:30;20.80;75.90
26186;DHT22;20067;48.764;9.176;2023-07-13T02:21:56;20.90;76.20
26186;DHT22;20067;48.764;9.176;2023-07-13T02:24:22;20.80;76.30
26186;DHT22;20067;48.764;9.176;2023-07-13T02:26:47;20.90;76.80
26186;DHT22;20067;48.764;9.176;2023-07-13T02:29:13;20.70;77.30
26186;DHT22;20067;48.764;9.176;2023-07-13T02:31:39;20.60;76.90
26186;DHT22;20067;48.764;9.176;2023-07-13T02:34:04;20.70;77.20
26186;DHT22;20067;48.764;9.176;2023-07-13T02:36:30;20.40;78.00
26186;DHT22;20067;48.764;9.176;2023-07-13T02:38:57;20.40;78.10
26186;DHT22;20067;48.764;9.176;2023-07-13T02:41:23;20.60;77.10
26186;DHT22;20067;48.764;9.176;2023-07-13T02:43:48;20.60;76.40
26186;DHT22;20067;48.764;9.176;2023-07-13T02:46:14;20.70;77.00
26186;DHT22;20067;48.764;9.176;2023-07-13T02:48:40;20.60;76.80
26186;DHT22;20067;48.764;9.176;2023-07-13T02:51:06;20.40;77.00
26186;DHT22;20067;48.764;9.176;2023-07-13T02:53:32;20.40;77.90
26186;DHT22;20067;48.764;9.176;2023-07-13T02:55:58;20.50;77.70
26186;DHT22;20067;48.764;9.176;2023-07-13T02:58:24;20.50;77.70
26186;DHT22;20067;48.764;9.176;2023-07-13T03:00:50;20.60;76.90
26186;DHT22;20067;48.764;9.176;2023-07-13T03:03:17;20.80;76.30
26186;DHT22;20067;48.764;9.176;2023-07-13T03:05:44;20.70;75.70
26186;DHT22;20067;48.764;9.176;2023-07-13T03:08:10;20.30;76.50
26186;DHT22;20067;48.764;9.176;2023-07-13T03:10:36;20.20;76.70
26186;DHT22;20067;48.764;9.176;2023-07-13T03:13:02;20.30;76.50
26186;DHT22;20067;48.764;9.176;2023-07-13T03:15:28;19.80;77.40
26186;DHT22;20067;48.764;9.176;2023-07-13T03:17:54;19.70;78.60
26186;DHT22;20067;48.764;9.176;2023-07-13T03:20:19;19.90;78.30
26186;DHT22;20067;48.764;9.176;2023-07-13T03:22:46;19.60;79.60
26186;DHT22;20067;48.764;9.176;2023-07-13T03:25:11;19.80;78.70
26186;DHT22;20067;48.764;9.176;2023-07-13T03:27:37;20.00;78.70
26186;DHT22;20067;48.764;9.176;2023-07-13T03:30:05;20.40;77.20
26186;DHT22;20067;48.764;9.176;2023-07-13T03:32:30;20.30;76.80
26186;DHT22;20067;48.764;9.176;2023-07-13T03:34:56;20.40;76.10
26186;DHT22;20067;48.764;9.176;2023-07-13T03:37:21;20.20;76.90
26186;DHT22;20067;48.764;9.176;2023-07-13T03:39:47;20.30;76.40
26186;DHT22;20067;48.764;9.176;2023-07-13T03:42:13;20.30;76.60
26186;DHT22;20067;48.764;9.176;2023-07-13T03:44:40;19.90;77.40
26186;DHT22;20067;48.764;9.176;2023-07-13T03:47:05;19.90;77.70
26186;DHT22;20067;48.764;9.176;2023-07-13T03:49:31;20.10;77.70
26186;DHT22;20067;48.764;9.176;2023-07-13T03:51:57;20.30;77.70
26186;DHT22;20067;48.764;9.176;2023-07-13T03:54:23;20.30;77.80
26186;DHT22;20067;48.764;9.176;2023-07-13T03:56:48;20.30;77.70
26186;DHT22;20067;48.764;9.176;2023-07-13T03:59:14;20.30;77.20
26186;DHT22;20067;48.764;9.176;2023-07-13T04:01:40;20.20;78.00
26186;DHT22;20067;48.764;9.176;2023-07-13T04:04:05;20.20;78.00
26186;DHT22;20067;48.764;9.176;2023-07-13T04:06:31;20.50;77.60
26186;DHT22;20067;48.764;9.176;2023-07-13T04:08:59;20.50;76.90
26186;DHT22;20067;48.764;9.176;2023-07-13T04:11:28;20.50;77.20
26186;DHT22;20067;48.764;9.176;2023-07-13T04:13:55;20.50;77.00
26186;DHT22;20067;48.764;9.176;2023-07-13T04:16:21;20.20;77.40
26186;DHT22;20067;48.764;9.176;2023-07-13T04:18:48;19.90;78.90
26186;DHT22;20067;48.764;9.176;2023-07-13T04:21:14;20.20;78.40
26186;DHT22;20067;48.764;9.176;2023-07-13T04:23:40;20.40;78.10
26186;DHT22;20067;48.764;9.176;2023-07-13T04:26:07;20.70;77.20
26186;DHT22;20067;48.764;9.176;2023-07-13T04:28:33;20.70;77.20
26186;DHT22;20067;48.764;9.176;2023-07-13T04:30:59;20.90;76.80
26186;DHT22;20067;48.764;9.176;2023-07-13T04:33:26;20.90;76.60
26186;DHT22;20067;48.764;9.176;2023-07-13T04:35:54;20.80;76.90
26186;DHT22;20067;48.764;9.176;2023-07-13T04:38:27;20.60;77.00
26186;DHT22;20067;48.764;9.176;2023-07-13T04:40:57;20.70;76.80
26186;DHT22;20067;48.764;9.176;2023-07-13T04:43:24;20.30;78.00
26186;DHT22;20067;48.764;9.176;2023-07-13T04:45:51;20.20;78.50
26186;DHT22;20067;48.764;9.176;2023-07-13T04:48:16;20.30;78.60
26186;DHT22;20067;48.764;9.176;2023-07-13T04:50:42;20.30;79.20
26186;DHT22;20067;48.764;9.176;2023-07-13T04:53:09;20.40;78.70
26186;DHT22;20067;48.764;9.176;2023-07-13T04:55:36;20.20;78.80
26186;DHT22;20067;48.764;9.176;2023-07-13T04:58:01;20.10;79.50
26186;DHT22;20067;48.764;9.176;2023-07-13T05:00:28;20.20;79.60
26186;DHT22;20067;48.764;9.176;2023-07-13T05:02:57;20.50;78.60
26186;DHT22;20067;48.764;9.176;2023-07-13T05:05:24;20.70;77.40
26186;DHT22;20067;48.764;9.176;2023-07-13T05:07:52;20.40;78.10
26186;DHT22;20067;48.764;9.176;2023-07-13T05:10:18;20.20;78.70
26186;DHT22;20067;48.764;9.176;2023-07-13T05:12:44;20.00;79.00
26186;DHT22;20067;48.764;9.176;2023-07-13T05:15:10;20.10;79.10
26186;DHT22;20067;48.764;9.176;2023-07-13T05:17:35;20.60;78.60
26186;DHT22;20067;48.764;9.176;2023-07-13T05:20:01;20.80;77.10
26186;DHT22;20067;48.764;9.176;2023-07-13T05:22:27;20.40;78.60
26186;DHT22;20067;48.764;9.176;2023-07-13T05:24:52;20.40;79.20
26186;DHT22;20067;48.764;9.176;2023-07-13T05:27:18;20.60;78.90
26186;DHT22;20067;48.764;9.176;2023-07-13T05:29:44;20.60;76.70
26186;DHT22;20067;48.764;9.176;2023-07-13T05:32:10;20.50;77.40
26186;DHT22;20067;48.764;9.176;2023-07-13T05:34:35;20.70;77.20
26186;DHT22;20067;48.764;9.176;2023-07-13T05:37:01;21.20;73.90
26186;DHT22;20067;48.764;9.176;2023-07-13T05:39:27;21.10;72.60
26186;DHT22;20067;48.764;9.176;2023-07-13T05:41:53;20.70;74.00
26186;DHT22;20067;48.764;9.176;2023-07-13T05:44:19;20.50;74.20
26186;DHT22;20067;48.764;9.176;2023-07-13T05:46:45;20.50;75.20
26186;DHT22;20067;48.764;9.176;2023-07-13T05:49:10;20.70;73.10
26186;DHT22;20067;48.764;9.176;2023-07-13T05:51:36;20.90;73.30
26186;DHT22;20067;48.764;9.176;2023-07-13T05:54:02;21.10;72.70
26186;DHT22;20067;48.764;9.176;2023-07-13T05:56:28;21.20;72.30
26186;DHT22;20067;48.764;9.176;2023-07-13T05:58:54;21.10;72.60
26186;DHT22;20067;48.764;9.176;2023-07-13T06:01:20;20.90;73.80
26186;DHT22;20067;48.764;9.176;2023-07-13T06:03:46;20.50;73.60
26186;DHT22;20067;48.764;9.176;2023-07-13T06:06:15;20.40;75.20
26186;DHT22;20067;48.764;9.176;2023-07-13T06:08:41;20.70;75.10
26186;DHT22;20067;48.764;9.176;2023-07-13T06:11:20;20.70;73.70
26186;DHT22;20067;48.764;9.176;2023-07-13T06:13:46;21.10;72.00
26186;DHT22;20067;48.764;9.176;2023-07-13T06:16:13;21.20;72.40
26186;DHT22;20067;48.764;9.176;2023-07-13T06:18:39;21.40;72.20
26186;DHT22;20067;48.764;9.176;2023-07-13T06:21:10;21.60;71.60
26186;DHT22;20067;48.764;9.176;2023-07-13T06:23:36;21.70;69.90
26186;DHT22;20067;48.764;9.176;2023-07-13T06:26:03;21.60;71.20
26186;DHT22;20067;48.764;9.176;2023-07-13T06:28:29;21.70;70.60
26186;DHT22;20067;48.764;9.176;2023-07-13T06:30:57;21.30;69.70
26186;DHT22;20067;48.764;9.176;2023-07-13T06:33:23;21.00;71.10
26186;DHT22;20067;48.764;9.176;2023-07-13T06:35:48;21.30;70.70
26186;DHT22;20067;48.764;9.176;2023-07-13T06:38:14;21.40;69.20
26186;DHT22;20067;48.764;9.176;2023-07-13T06:40:40;21.50;69.60
26186;DHT22;20067;48.764;9.176;2023-07-13T06:43:06;21.60;68.70
26186;DHT22;20067;48.764;9.176;2023-07-13T06:45:36;21.50;69.00
26186;DHT22;20067;48.764;9.176;2023-07-13T06:48:05;21.50;68.70
26186;DHT22;20067;48.764;9.176;2023-07-13T06:50:31;21.80;69.20
26186;DHT22;20067;48.764;9.176;2023-07-13T06:52:57;21.80;68.60
26186;DHT22;20067;48.764;9.176;2023-07-13T06:55:25;21.60;67.70
26186;DHT22;20067;48.764;9.176;2023-07-13T06:57:50;21.20;69.00
26186;DHT22;20067;48.764;9.176;2023-07-13T07:00:16;21.50;70.10
26186;DHT22;20067;48.764;9.176;2023-07-13T07:02:42;21.60;69.20
26186;DHT22;20067;48.764;9.176;2023-07-13T07:05:07;21.80;69.00
26186;DHT22;20067;48.764;9.176;2023-07-13T07:07:33;22.00;68.10
26186;DHT22;20067;48.764;9.176;2023-07-13T07:09:58;22.30;66.60
26186;DHT22;20067;48.764;9.176;2023-07-13T07:12:25;22.40;67.00
26186;DHT22;20067;48.764;9.176;2023-07-13T07:14:51;22.50;65.50
26186;DHT22;20067;48.764;9.176;2023-07-13T07:17:17;22.40;65.70
26186;DHT22;20067;48.764;9.176;2023-07-13T07:19:42;22.30;66.30
26186;DHT22;20067;48.764;9.176;2023-07-13T07:22:08;22.20;66.80
26186;DHT22;20067;48.764;9.176;2023-07-13T07:24:33;22.10;64.60
26186;DHT22;20067;48.764;9.176;2023-07-13T07:26:59;22.20;66.00
26186;DHT22;20067;48.764;9.176;2023-07-13T07:29:25;22.10;64.00
26186;DHT22;20067;48.764;9.176;2023-07-13T07:31:53;21.90;65.50
26186;DHT22;20067;48.764;9.176;2023-07-13T07:34:18;22.20;66.20
26186;DHT22;20067;48.764;9.176;2023-07-13T07:36:44;22.40;64.80
26186;DHT22;20067;48.764;9.176;2023-07-13T07:39:09;22.50;64.00
26186;DHT22;20067;48.764;9.176;2023-07-13T07:41:35;22.70;64.00
26186;DHT22;20067;48.764;9.176;2023-07-13T07:44:01;22.80;63.90
26186;DHT22;20067;48.764;9.176;2023-07-13T07:46:26;22.70;64.60
26186;DHT22;20067;48.764;9.176;2023-07-13T07:48:53;22.90;63.20
26186;DHT22;20067;48.764;9.176;2023-07-13T07:51:19;23.10;64.00
26186;DHT22;20067;48.764;9.176;2023-07-13T07:53:44;23.70;63.00
26186;DHT22;20067;48.764;9.176;2023-07-13T07:56:10;23.70;61.50
26186;DHT22;20067;48.764;9.176;2023-07-13T07:58:35;23.00;62.30
26186;DHT22;20067;48.764;9.176;2023-07-13T08:01:05;23.10;62.30
26186;DHT22;20067;48.764;9.176;2023-07-13T08:03:31;23.60;61.30
26186;DHT22;20067;48.764;9.176;2023-07-13T08:05:57;23.90;59.30
26186;DHT22;20067;48.764;9.176;2023-07-13T08:08:22;23.90;60.00
26186;DHT22;20067;48.764;9.176;2023-07-13T08:10:48;23.10;59.70
26186;DHT22;20067;48.764;9.176;2023-07-13T08:13:13;23.30;60.50
26186;DHT22;20067;48.764;9.176;2023-07-13T08:15:39;23.30;60.20
26186;DHT22;20067;48.764;9.176;2023-07-13T08:18:05;23.40;60.30
26186;DHT22;20067;48.764;9.176;2023-07-13T08:20:31;23.80;59.60
26186;DHT22;20067;48.764;9.176;2023-07-13T08:22:57;23.90;58.30
26186;DHT22;20067;48.764;9.176;2023-07-13T08:25:22;24.10;58.70
26186;DHT22;20067;48.764;9.176;2023-07-13T08:27:48;24.40;58.50
26186;DHT22;20067;48.764;9.176;2023-07-13T08:30:14;24.20;58.70
26186;DHT22;20067;48.764;9.176;2023-07-13T08:32:39;24.90;57.40
26186;DHT22;20067;48.764;9.176;2023-07-13T08:35:05;24.40;57.70
26186;DHT22;20067;48.764;9.176;2023-07-13T08:37:31;24.10;58.40
26186;DHT22;20067;48.764;9.176;2023-07-13T08:39:57;24.30;58.70
26186;DHT22;20067;48.764;9.176;2023-07-13T08:42:39;24.60;58.30
26186;DHT22;20067;48.764;9.176;2023-07-13T08:50:25;25.70;57.10
26186;DHT22;20067;48.764;9.176;2023-07-13T08:52:53;25.90;56.10
26186;DHT22;20067;48.764;9.176;2023-07-13T08:55:40;25.90;56.20
26186;DHT22;20067;48.764;9.176;2023-07-13T08:58:12;25.60;56.80
26186;DHT22;20067;48.764;9.176;2023-07-13T09:03:23;24.70;58.40
26186;DHT22;20067;48.764;9.176;2023-07-13T09:05:54;25.00;58.90
26186;DHT22;20067;48.764;9.176;2023-07-13T09:16:29;25.40;57.90
26186;DHT22;20067;48.764;9.176;2023-07-13T09:19:01;25.50;56.90
26186;DHT22;20067;48.764;9.176;2023-07-13T09:21:37;25.80;56.90
26186;DHT22;20067;48.764;9.176;2023-07-13T09:24:37;25.30;57.40
26186;DHT22;20067;48.764;9.176;2023-07-13T09:27:25;25.10;58.80
26186;DHT22;20067;48.764;9.176;2023-07-13T09:32:52;25.60;57.00
26186;DHT22;20067;48.764;9.176;2023-07-13T09:35:22;26.00;57.40
26186;DHT22;20067;48.764;9.176;2023-07-13T09:37:49;26.80;55.00
26186;DHT22;20067;48.764;9.176;2023-07-13T09:40:35;27.00;54.90
26186;DHT22;20067;48.764;9.176;2023-07-13T09:43:03;26.60;54.30
26186;DHT22;20067;48.764;9.176;2023-07-13T09:45:32;26.00;54.90
26186;DHT22;20067;48.764;9.176;2023-07-13T09:48:10;25.50;56.40
26186;DHT22;20067;48.764;9.176;2023-07-13T09:50:36;25.40;56.80
26186;DHT22;20067;48.764;9.176;2023-07-13T09:53:02;25.40;56.10
26186;DHT22;20067;48.764;9.176;2023-07-13T09:55:36;26.60;57.00
26186;DHT22;20067;48.764;9.176;2023-07-13T10:00:43;28.00;51.90
26186;DHT22;20067;48.764;9.176;2023-07-13T10:05:45;28.80;50.90
26186;DHT22;20067;48.764;9.176;2023-07-13T10:08:28;26.80;52.80
26186;DHT22;20067;48.764;9.176;2023-07-13T10:11:12;26.80;53.30
26186;DHT22;20067;48.764;9.176;2023-07-13T10:13:50;27.00;53.60
26186;DHT22;20067;48.764;9.176;2023-07-13T10:16:17;27.10;53.20
26186;DHT22;20067;48.764;9.176;2023-07-13T10:18:49;27.40;54.30
26186;DHT22;20067;48.764;9.176;2023-07-13T10:21:21;28.40;52.10
26186;DHT22;20067;48.764;9.176;2023-07-13T10:24:23;28.60;50.70
26186;DHT22;20067;48.764;9.176;2023-07-13T10:27:18;28.60;50.40
26186;DHT22;20067;48.764;9.176;2023-07-13T10:32:34;28.60;52.30
26186;DHT22;20067;48.764;9.176;2023-07-13T10:34:59;28.60;50.10
26186;DHT22;20067;48.764;9.176;2023-07-13T10:37:30;28.50;50.00
26186;DHT22;20067;48.764;9.176;2023-07-13T10:40:01;28.90;50.10
26186;DHT22;20067;48.764;9.176;2023-07-13T10:42:34;28.60;50.80
26186;DHT22;20067;48.764;9.176;2023-07-13T10:45:01;28.70;49.90
26186;DHT22;20067;48.764;9.176;2023-07-13T10:47:27;28.30;49.70
26186;DHT22;20067;48.764;9.176;2023-07-13T10:50:03;27.90;51.10
26186;DHT22;20067;48.764;9.176;2023-07-13T10:52:47;27.90;50.40
26186;DHT22;20067;48.764;9.176;2023-07-13T10:58:23;28.40;50.20
26186;DHT22;20067;48.764;9.176;2023-07-13T11:03:27;28.50;50.30
26186;DHT22;20067;48.764;9.176;2023-07-13T11:06:09;28.60;50.50
26186;DHT22;20067;48.764;9.176;2023-07-13T11:08:38;28.10;49.60
26186;DHT22;20067;48.764;9.176;2023-07-13T11:14:02;27.90;50.50
26186;DHT22;20067;48.764;9.176;2023-07-13T11:16:48;27.80;50.70
26186;DHT22;20067;48.764;9.176;2023-07-13T11:25:02;28.40;49.50
26186;DHT22;20067;48.764;9.176;2023-07-13T11:27:41;27.40;50.90
26186;DHT22;20067;48.764;9.176;2023-07-13T11:36:12;28.50;50.70
26186;DHT22;20067;48.764;9.176;2023-07-13T11:39:05;30.30;47.20
26186;DHT22;20067;48.764;9.176;2023-07-13T11:41:43;30.20;47.90
26186;DHT22;20067;48.764;9.176;2023-07-13T11:44:17;32.50;45.20
26186;DHT22;20067;48.764;9.176;2023-07-13T11:46:54;34.60;43.00
26186;DHT22;20067;48.764;9.176;2023-07-13T11:49:23;34.60;41.90
26186;DHT22;20067;48.764;9.176;2023-07-13T11:51:49;33.80;42.30
26186;DHT22;20067;48.764;9.176;2023-07-13T11:54:31;31.10;44.90
26186;DHT22;20067;48.764;9.176;2023-07-13T11:57:01;29.00;47.80
26186;DHT22;20067;48.764;9.176;2023-07-13T11:59:29;29.70;47.40
26186;DHT22;20067;48.764;9.176;2023-07-13T12:01:57;31.60;46.70
26186;DHT22;20067;48.764;9.176;2023-07-13T12:09:34;31.30;46.30
26186;DHT22;20067;48.764;9.176;2023-07-13T12:12:02;32.80;42.90
26186;DHT22;20067;48.764;9.176;2023-07-13T12:14:28;31.60;44.30
26186;DHT22;20067;48.764;9.176;2023-07-13T12:16:55;31.20;46.40
26186;DHT22;20067;48.764;9.176;2023-07-13T12:19:27;32.10;44.50
26186;DHT22;20067;48.764;9.176;2023-07-13T12:21:55;32.30;43.30
26186;DHT22;20067;48.764;9.176;2023-07-13T12:24:22;34.20;42.20
26186;DHT22;20067;48.764;9.176;2023-07-13T12:26:59;35.00;40.40
26186;DHT22;20067;48.764;9.176;2023-07-13T12:29:26;34.50;40.70
26186;DHT22;20067;48.764;9.176;2023-07-13T12:31:52;32.70;42.40
26186;DHT22;20067;48.764;9.176;2023-07-13T12:34:22;32.50;42.50
26186;DHT22;20067;48.764;9.176;2023-07-13T12:36:59;31.00;44.40
26186;DHT22;20067;48.764;9.176;2023-07-13T12:39:46;29.80;46.20
26186;DHT22;20067;48.764;9.176;2023-07-13T12:42:24;28.40;48.30
26186;DHT22;20067;48.764;9.176;2023-07-13T12:48:03;28.10;48.90
26186;DHT22;20067;48.764;9.176;2023-07-13T12:50:39;28.30;48.50
26186;DHT22;20067;48.764;9.176;2023-07-13T12:53:17;31.20;44.50
26186;DHT22;20067;48.764;9.176;2023-07-13T12:55:48;32.50;42.60
26186;DHT22;20067;48.764;9.176;2023-07-13T13:00:48;33.70;41.00
26186;DHT22;20067;48.764;9.176;2023-07-13T13:03:32;34.40;40.20
26186;DHT22;20067;48.764;9.176;2023-07-13T13:08:47;34.90;39.90
26186;DHT22;20067;48.764;9.176;2023-07-13T13:11:14;36.00;40.40
26186;DHT22;20067;48.764;9.176;2023-07-13T13:13:42;34.20;40.10
26186;DHT22;20067;48.764;9.176;2023-07-13T13:18:49;32.80;41.20
26186;DHT22;20067;48.764;9.176;2023-07-13T13:21:16;33.90;40.60
26186;DHT22;20067;48.764;9.176;2023-07-13T13:23:42;33.90;40.60
26186;DHT22;20067;48.764;9.176;2023-07-13T13:26:12;34.10;40.20
26186;DHT22;20067;48.764;9.176;2023-07-13T13:28:39;33.60;41.20
26186;DHT22;20067;48.764;9.176;2023-07-13T13:31:05;33.10;41.50
26186;DHT22;20067;48.764;9.176;2023-07-13T13:33:30;34.10;40.50
26186;DHT22;20067;48.764;9.176;2023-07-13T13:35:56;34.30;39.90
26186;DHT22;20067;48.764;9.176;2023-07-13T13:38:26;34.10;39.20
26186;DHT22;20067;48.764;9.176;2023-07-13T13:40:52;33.10;41.20
26186;DHT22;20067;48.764;9.176;2023-07-13T13:43:22;32.40;41.00
26186;DHT22;20067;48.764;9.176;2023-07-13T13:45:53;33.90;39.60
26186;DHT22;20067;48.764;9.176;2023-07-13T13:48:24;34.90;39.20
26186;DHT22;20067;48.764;9.176;2023-07-13T13:50:56;34.50;39.20
26186;DHT22;20067;48.764;9.176;2023-07-13T13:53:22;31.90;41.80
26186;DHT22;20067;48.764;9.176;2023-07-13T13:55:49;31.80;42.40
26186;DHT22;20067;48.764;9.176;2023-07-13T13:58:15;30.50;43.70
26186;DHT22;20067;48.764;9.176;2023-07-13T14:00:42;30.00;45.00
26186;DHT22;20067;48.764;9.176;2023-07-13T14:03:29;30.20;45.70
26186;DHT22;20067;48.764;9.176;2023-07-13T14:05:54;31.60;44.20
26186;DHT22;20067;48.764;9.176;2023-07-13T14:08:22;32.80;40.80
26186;DHT22;20067;48.764;9.176;2023-07-13T14:10:50;31.50;43.40
26186;DHT22;20067;48.764;9.176;2023-07-13T14:13:19;31.90;43.50
26186;DHT22;20067;48.764;9.176;2023-07-13T14:15:49;32.30;41.30
26186;DHT22;20067;48.764;9.176;2023-07-13T14:18:15;31.30;43.50
26186;DHT22;20067;48.764;9.176;2023-07-13T14:20:48;30.80;43.40
26186;DHT22;20067;48.764;9.176;2023-07-13T14:23:17;31.20;43.00
26186;DHT22;20067;48.764;9.176;2023-07-13T14:25:46;31.40;43.10
26186;DHT22;20067;48.764;9.176;2023-07-13T14:28:26;30.60;44.00
26186;DHT22;20067;48.764;9.176;2023-07-13T14:30:54;30.20;45.30
26186;DHT22;20067;48.764;9.176;2023-07-13T14:33:21;31.10;45.90
26186;DHT22;20067;48.764;9.176;2023-07-13T14:35:47;31.90;42.60
26186;DHT22;20067;48.764;9.176;2023-07-13T14:38:17;32.00;41.60
26186;DHT22;20067;48.764;9.176;2023-07-13T14:40:43;30.40;43.10
26186;DHT22;20067;48.764;9.176;2023-07-13T14:43:13;29.10;46.20
26186;DHT22;20067;48.764;9.176;2023-07-13T14:45:42;29.50;46.00
26186;DHT22;20067;48.764;9.176;2023-07-13T14:48:22;29.10;45.60
26186;DHT22;20067;48.764;9.176;2023-07-13T14:50:54;29.50;46.00
26186;DHT22;20067;48.764;9.176;2023-07-13T14:53:20;29.40;46.70
26186;DHT22;20067;48.764;9.176;2023-07-13T14:55:46;29.30;46.90
26186;DHT22;20067;48.764;9.176;2023-07-13T14:58:12;29.70;47.00
26186;DHT22;20067;48.764;9.176;2023-07-13T15:00:39;29.40;45.80
26186;DHT22;20067;48.764;9.176;2023-07-13T15:03:06;29.40;46.40
26186;DHT22;20067;48.764;9.176;2023-07-13T15:05:40;29.70;46.00
26186;DHT22;20067;48.764;9.176;2023-07-13T15:08:06;29.20;46.60
26186;DHT22;20067;48.764;9.176;2023-07-13T15:10:33;29.40;47.90
26186;DHT22;20067;48.764;9.176;2023-07-13T15:13:01;29.50;46.00
26186;DHT22;20067;48.764;9.176;2023-07-13T15:15:29;29.40;46.20
26186;DHT22;20067;48.764;9.176;2023-07-13T15:17:56;29.40;46.20
26186;DHT22;20067;48.764;9.176;2023-07-13T15:20:28;28.40;47.80
26186;DHT22;20067;48.764;9.176;2023-07-13T15:22:54;28.20;48.50
26186;DHT22;20067;48.764;9.176;2023-07-13T15:25:22;28.10;49.30
26186;DHT22;20067;48.764;9.176;2023-07-13T15:27:50;28.30;47.90
26186;DHT22;20067;48.764;9.176;2023-07-13T15:30:16;28.10;48.30
26186;DHT22;20067;48.764;9.176;2023-07-13T15:32:46;28.10;48.40
26186;DHT22;20067;48.764;9.176;2023-07-13T15:35:17;28.50;48.40
26186;DHT22;20067;48.764;9.176;2023-07-13T15:37:43;28.50;48.00
26186;DHT22;20067;48.764;9.176;2023-07-13T15:40:10;28.30;48.90
26186;DHT22;20067;48.764;9.176;2023-07-13T15:42:37;28.60;49.50
26186;DHT22;20067;48.764;9.176;2023-07-13T15:45:05;28.70;48.00
26186;DHT22;20067;48.764;9.176;2023-07-13T15:47:31;28.60;47.50
26186;DHT22;20067;48.764;9.176;2023-07-13T15:49:57;28.40;48.40
26186;DHT22;20067;48.764;9.176;2023-07-13T15:52:24;27.80;48.60
26186;DHT22;20067;48.764;9.176;2023-07-13T15:54:50;27.60;48.70
26186;DHT22;20067;48.764;9.176;2023-07-13T15:57:16;27.30;49.10
26186;DHT22;20067;48.764;9.176;2023-07-13T15:59:42;27.60;49.30
26186;DHT22;20067;48.764;9.176;2023-07-13T16:02:19;27.90;49.10
26186;DHT22;20067;48.764;9.176;2023-07-13T16:04:46;28.10;48.60
26186;DHT22;20067;48.764;9.176;2023-07-13T16:07:13;28.20;48.20
26186;DHT22;20067;48.764;9.176;2023-07-13T16:09:41;28.20;47.90
26186;DHT22;20067;48.764;9.176;2023-07-13T16:12:14;28.10;47.60
26186;DHT22;20067;48.764;9.176;2023-07-13T16:14:41;27.80;48.60
26186;DHT22;20067;48.764;9.176;2023-07-13T16:17:13;27.80;48.90
26186;DHT22;20067;48.764;9.176;2023-07-13T16:19:40;27.80;49.40
26186;DHT22;20067;48.764;9.176;2023-07-13T16:22:17;28.00;49.10
26186;DHT22;20067;48.764;9.176;2023-07-13T16:24:43;27.70;48.50
26186;DHT22;20067;48.764;9.176;2023-07-13T16:27:11;27.40;49.60
26186;DHT22;20067;48.764;9.176;2023-07-13T16:29:38;27.70;49.30
26186;DHT22;20067;48.764;9.176;2023-07-13T16:32:10;27.50;48.90
26186;DHT22;20067;48.764;9.176;2023-07-13T16:34:38;27.30;49.80
26186;DHT22;20067;48.764;9.176;2023-07-13T16:37:22;27.30;49.20
26186;DHT22;20067;48.764;9.176;2023-07-13T16:39:53;27.30;49.00
26186;DHT22;20067;48.764;9.176;2023-07-13T16:42:21;27.40;49.10
26186;DHT22;20067;48.764;9.176;2023-07-13T16:44:46;27.70;49.00